sensor_id;sensor_type;location;lat;lon;timestamp;P1;durP1;ratioP1;P2;durP2;ratioP2
11228;SDS011;5671;47.936;8.716;2023-11-19T00:00:29;3.83;;;3.53;;
11228;SDS011;5671;47.936;8.716;2023-11-19T00:02:56;4.60;;;4.20;;
11228;SDS011;5671;47.936;8.716;2023-11-19T00:05:22;5.13;;;4.73;;
11228;SDS011;5671;47.936;8.716;2023-11-19T00:07:49;9.23;;;7.80;;
11228;SDS011;5671;47.936;8.716;2023-11-19T00:10:16;7.43;;;6.63;;
11228;SDS011;5671;47.936;8.716;2023-11-19T00:12:45;6.23;;;5.63;;
11228;SDS011;5671;47.936;8.716;2023-11-19T00:15:13;4.10;;;3.80;;
11228;SDS011;5671;47.936;8.716;2023-11-19T00:17:41;4.57;;;4.17;;
11228;SDS011;5671;47.936;8.716;2023-11-19T00:20:10;4.30;;;4.00;;
11228;SDS011;5671;47.936;8.716;2023-11-19T00:22:37;3.20;;;3.00;;
11228;SDS011;5671;47.936;8.716;2023-11-19T00:25:04;3.10;;;2.90;;
11228;SDS011;5671;47.936;8.716;2023-11-19T00:27:32;7.47;;;5.47;;
11228;SDS011;5671;47.936;8.716;2023-11-19T00:29:59;3.30;;;3.00;;
11228;SDS011;5671;47.936;8.716;2023-11-19T00:32:25;9.70;;;4.83;;
11228;SDS011;5671;47.936;8.716;2023-11-19T00:34:54;7.10;;;3.87;;
11228;SDS011;5671;47.936;8.716;2023-11-19T00:37:20;3.50;;;2.90;;
11228;SDS011;5671;47.936;8.716;2023-11-19T00:39:47;9.10;;;3.97;;
11228;SDS011;5671;47.936;8.716;2023-11-19T00:42:14;17.80;;;7.20;;
11228;SDS011;5671;47.936;8.716;2023-11-19T00:44:41;37.23;;;16.40;;
11228;SDS011;5671;47.936;8.716;2023-11-19T00:47:08;47.10;;;19.53;;
11228;SDS011;5671;47.936;8.716;2023-11-19T00:49:34;12.17;;;6.83;;
11228;SDS011;5671;47.936;8.716;2023-11-19T00:52:03;2.30;;;2.10;;
11228;SDS011;5671;47.936;8.716;2023-11-19T00:54:31;2.60;;;2.40;;
11228;SDS011;5671;47.936;8.716;2023-11-19T00:56:58;2.10;;;2.00;;
11228;SDS011;5671;47.936;8.716;2023-11-19T00:59:26;1.93;;;1.83;;
11228;SDS011;5671;47.936;8.716;2023-11-19T01:01:53;2.00;;;1.90;;
11228;SDS011;5671;47.936;8.716;2023-11-19T01:04:21;2.40;;;2.20;;
11228;SDS011;5671;47.936;8.716;2023-11-19T01:06:49;2.20;;;2.00;;
11228;SDS011;5671;47.936;8.716;2023-11-19T01:09:17;1.90;;;1.80;;
11228;SDS011;5671;47.936;8.716;2023-11-19T01:11:44;1.97;;;1.87;;
11228;SDS011;5671;47.936;8.716;2023-11-19T01:14:12;2.70;;;1.67;;
11228;SDS011;5671;47.936;8.716;2023-11-19T01:16:38;1.80;;;1.70;;
11228;SDS011;5671;47.936;8.716;2023-11-19T01:19:05;1.60;;;1.50;;
11228;SDS011;5671;47.936;8.716;2023-11-19T01:21:32;1.77;;;1.67;;
11228;SDS011;5671;47.936;8.716;2023-11-19T01:23:59;1.23;;;1.23;;
11228;SDS011;5671;47.936;8.716;2023-11-19T01:26:29;1.50;;;1.50;;
11228;SDS011;5671;47.936;8.716;2023-11-19T01:28:56;1.40;;;1.40;;
11228;SDS011;5671;47.936;8.716;2023-11-19T01:31:22;1.70;;;1.60;;
11228;SDS011;5671;47.936;8.716;2023-11-19T01:33:49;1.93;;;1.83;;
11228;SDS011;5671;47.936;8.716;2023-11-19T01:36:16;1.70;;;1.60;;
11228;SDS011;5671;47.936;8.716;2023-11-19T01:38:43;1.53;;;1.43;;
11228;SDS011;5671;47.936;8.716;2023-11-19T01:41:09;1.77;;;1.67;;
11228;SDS011;5671;47.936;8.716;2023-11-19T01:43:38;1.60;;;1.50;;
11228;SDS011;5671;47.936;8.716;2023-11-19T01:46:06;1.80;;;1.70;;
11228;SDS011;5671;47.936;8.716;2023-11-19T01:48:34;1.70;;;1.60;;
11228;SDS011;5671;47.936;8.716;2023-11-19T01:51:04;1.70;;;1.60;;
11228;SDS011;5671;47.936;8.716;2023-11-19T01:53:33;1.80;;;1.70;;
11228;SDS011;5671;47.936;8.716;2023-11-19T01:56:01;2.00;;;1.90;;
11228;SDS011;5671;47.936;8.716;2023-11-19T01:58:29;1.70;;;1.60;;
11228;SDS011;5671;47.936;8.716;2023-11-19T02:00:58;1.93;;;1.83;;
11228;SDS011;5671;47.936;8.716;2023-11-19T02:03:25;1.80;;;1.70;;
11228;SDS011;5671;47.936;8.716;2023-11-19T02:05:54;1.73;;;1.63;;
11228;SDS011;5671;47.936;8.716;2023-11-19T02:08:21;1.90;;;1.80;;
11228;SDS011;5671;47.936;8.716;2023-11-19T02:10:48;1.90;;;1.80;;
11228;SDS011;5671;47.936;8.716;2023-11-19T02:13:15;2.10;;;2.00;;
11228;SDS011;5671;47.936;8.716;2023-11-19T02:15:42;2.20;;;2.03;;
11228;SDS011;5671;47.936;8.716;2023-11-19T02:18:20;2.17;;;2.00;;
11228;SDS011;5671;47.936;8.716;2023-11-19T02:20:48;2.60;;;2.00;;
11228;SDS011;5671;47.936;8.716;2023-11-19T02:23:15;2.20;;;2.10;;
11228;SDS011;5671;47.936;8.716;2023-11-19T02:25:44;2.00;;;1.90;;
11228;SDS011;5671;47.936;8.716;2023-11-19T02:28:17;2.23;;;2.13;;
11228;SDS011;5671;47.936;8.716;2023-11-19T02:30:44;2.10;;;2.00;;
11228;SDS011;5671;47.936;8.716;2023-11-19T02:33:11;2.00;;;1.90;;
11228;SDS011;5671;47.936;8.716;2023-11-19T02:35:37;1.87;;;1.77;;
11228;SDS011;5671;47.936;8.716;2023-11-19T02:38:05;1.47;;;1.37;;
11228;SDS011;5671;47.936;8.716;2023-11-19T02:40:33;2.00;;;1.80;;
11228;SDS011;5671;47.936;8.716;2023-11-19T02:43:00;1.90;;;1.73;;
11228;SDS011;5671;47.936;8.716;2023-11-19T02:45:31;1.40;;;1.30;;
11228;SDS011;5671;47.936;8.716;2023-11-19T02:47:58;1.60;;;1.50;;
11228;SDS011;5671;47.936;8.716;2023-11-19T02:50:27;1.40;;;1.30;;
11228;SDS011;5671;47.936;8.716;2023-11-19T02:52:55;2.40;;;2.20;;
11228;SDS011;5671;47.936;8.716;2023-11-19T02:55:22;1.80;;;1.70;;
11228;SDS011;5671;47.936;8.716;2023-11-19T02:57:49;1.73;;;1.63;;
11228;SDS011;5671;47.936;8.716;2023-11-19T03:00:18;1.70;;;1.60;;
11228;SDS011;5671;47.936;8.716;2023-11-19T03:02:50;2.00;;;1.90;;
11228;SDS011;5671;47.936;8.716;2023-11-19T03:05:24;1.63;;;1.53;;
11228;SDS011;5671;47.936;8.716;2023-11-19T03:07:54;1.20;;;1.10;;
11228;SDS011;5671;47.936;8.716;2023-11-19T03:10:21;0.87;;;0.87;;
11228;SDS011;5671;47.936;8.716;2023-11-19T03:12:49;0.93;;;0.93;;
11228;SDS011;5671;47.936;8.716;2023-11-19T03:15:15;1.13;;;1.00;;
11228;SDS011;5671;47.936;8.716;2023-11-19T03:17:42;1.43;;;1.10;;
11228;SDS011;5671;47.936;8.716;2023-11-19T03:20:11;1.00;;;1.00;;
11228;SDS011;5671;47.936;8.716;2023-11-19T03:22:40;0.97;;;0.97;;
11228;SDS011;5671;47.936;8.716;2023-11-19T03:25:07;2.53;;;1.50;;
11228;SDS011;5671;47.936;8.716;2023-11-19T03:27:35;1.40;;;1.40;;
11228;SDS011;5671;47.936;8.716;2023-11-19T03:30:03;1.30;;;1.30;;
11228;SDS011;5671;47.936;8.716;2023-11-19T03:32:31;1.10;;;1.10;;
11228;SDS011;5671;47.936;8.716;2023-11-19T03:34:59;1.47;;;1.37;;
11228;SDS011;5671;47.936;8.716;2023-11-19T03:37:28;1.60;;;1.50;;
11228;SDS011;5671;47.936;8.716;2023-11-19T03:39:55;1.50;;;1.40;;
11228;SDS011;5671;47.936;8.716;2023-11-19T03:42:24;1.60;;;1.50;;
11228;SDS011;5671;47.936;8.716;2023-11-19T03:44:51;1.93;;;1.50;;
11228;SDS011;5671;47.936;8.716;2023-11-19T03:47:18;1.60;;;1.50;;
11228;SDS011;5671;47.936;8.716;2023-11-19T03:49:47;1.73;;;1.63;;
11228;SDS011;5671;47.936;8.716;2023-11-19T03:52:14;1.40;;;1.40;;
11228;SDS011;5671;47.936;8.716;2023-11-19T03:54:43;1.40;;;1.30;;
11228;SDS011;5671;47.936;8.716;2023-11-19T03:57:10;1.70;;;1.60;;
11228;SDS011;5671;47.936;8.716;2023-11-19T03:59:37;1.37;;;1.27;;
11228;SDS011;5671;47.936;8.716;2023-11-19T04:02:04;1.43;;;1.33;;
11228;SDS011;5671;47.936;8.716;2023-11-19T04:04:31;0.97;;;0.93;;
11228;SDS011;5671;47.936;8.716;2023-11-19T04:06:58;1.63;;;1.20;;
11228;SDS011;5671;47.936;8.716;2023-11-19T04:09:26;1.33;;;1.23;;
11228;SDS011;5671;47.936;8.716;2023-11-19T04:11:54;1.10;;;1.10;;
11228;SDS011;5671;47.936;8.716;2023-11-19T04:14:21;1.57;;;1.47;;
11228;SDS011;5671;47.936;8.716;2023-11-19T04:16:48;1.60;;;1.50;;
11228;SDS011;5671;47.936;8.716;2023-11-19T04:19:14;1.57;;;1.30;;
11228;SDS011;5671;47.936;8.716;2023-11-19T04:21:41;1.67;;;1.57;;
11228;SDS011;5671;47.936;8.716;2023-11-19T04:24:08;1.50;;;1.40;;
11228;SDS011;5671;47.936;8.716;2023-11-19T04:26:39;1.50;;;1.40;;
11228;SDS011;5671;47.936;8.716;2023-11-19T04:29:09;1.23;;;1.13;;
11228;SDS011;5671;47.936;8.716;2023-11-19T04:31:37;1.63;;;1.53;;
11228;SDS011;5671;47.936;8.716;2023-11-19T04:34:04;2.00;;;1.50;;
11228;SDS011;5671;47.936;8.716;2023-11-19T04:36:31;1.30;;;1.30;;
11228;SDS011;5671;47.936;8.716;2023-11-19T04:38:58;1.20;;;1.10;;
11228;SDS011;5671;47.936;8.716;2023-11-19T04:41:25;0.80;;;0.80;;
11228;SDS011;5671;47.936;8.716;2023-11-19T04:43:52;1.33;;;0.80;;
11228;SDS011;5671;47.936;8.716;2023-11-19T04:46:20;0.67;;;0.67;;
11228;SDS011;5671;47.936;8.716;2023-11-19T04:48:48;0.73;;;0.73;;
11228;SDS011;5671;47.936;8.716;2023-11-19T04:51:15;0.53;;;0.53;;
11228;SDS011;5671;47.936;8.716;2023-11-19T04:53:42;0.80;;;0.80;;
11228;SDS011;5671;47.936;8.716;2023-11-19T04:56:09;1.27;;;1.17;;
11228;SDS011;5671;47.936;8.716;2023-11-19T04:58:36;1.10;;;1.10;;
11228;SDS011;5671;47.936;8.716;2023-11-19T05:01:03;1.80;;;0.90;;
11228;SDS011;5671;47.936;8.716;2023-11-19T05:03:32;1.00;;;1.00;;
11228;SDS011;5671;47.936;8.716;2023-11-19T05:05:59;1.07;;;1.07;;
11228;SDS011;5671;47.936;8.716;2023-11-19T05:08:25;0.80;;;0.80;;
11228;SDS011;5671;47.936;8.716;2023-11-19T05:10:53;1.00;;;1.00;;
11228;SDS011;5671;47.936;8.716;2023-11-19T05:13:19;2.43;;;0.70;;
11228;SDS011;5671;47.936;8.716;2023-11-19T05:15:47;0.60;;;0.60;;
11228;SDS011;5671;47.936;8.716;2023-11-19T05:18:14;2.00;;;0.70;;
11228;SDS011;5671;47.936;8.716;2023-11-19T05:20:42;0.60;;;0.60;;
11228;SDS011;5671;47.936;8.716;2023-11-19T05:23:08;0.87;;;0.60;;
11228;SDS011;5671;47.936;8.716;2023-11-19T05:25:36;0.57;;;0.57;;
11228;SDS011;5671;47.936;8.716;2023-11-19T05:28:03;0.90;;;0.90;;
11228;SDS011;5671;47.936;8.716;2023-11-19T05:30:30;0.60;;;0.60;;
11228;SDS011;5671;47.936;8.716;2023-11-19T05:32:57;0.73;;;0.73;;
11228;SDS011;5671;47.936;8.716;2023-11-19T05:35:23;0.50;;;0.50;;
11228;SDS011;5671;47.936;8.716;2023-11-19T05:37:51;0.30;;;0.30;;
11228;SDS011;5671;47.936;8.716;2023-11-19T05:40:18;0.30;;;0.30;;
11228;SDS011;5671;47.936;8.716;2023-11-19T05:42:45;0.80;;;0.80;;
11228;SDS011;5671;47.936;8.716;2023-11-19T05:45:12;0.70;;;0.70;;
11228;SDS011;5671;47.936;8.716;2023-11-19T05:47:39;0.60;;;0.60;;
11228;SDS011;5671;47.936;8.716;2023-11-19T05:50:07;2.00;;;0.60;;
11228;SDS011;5671;47.936;8.716;2023-11-19T05:52:35;0.57;;;0.57;;
11228;SDS011;5671;47.936;8.716;2023-11-19T05:55:03;0.40;;;0.40;;
11228;SDS011;5671;47.936;8.716;2023-11-19T05:57:34;0.67;;;0.67;;
11228;SDS011;5671;47.936;8.716;2023-11-19T06:00:01;1.10;;;1.00;;
11228;SDS011;5671;47.936;8.716;2023-11-19T06:02:32;2.60;;;2.40;;
11228;SDS011;5671;47.936;8.716;2023-11-19T06:04:59;4.03;;;3.63;;
11228;SDS011;5671;47.936;8.716;2023-11-19T06:07:26;3.00;;;2.70;;
11228;SDS011;5671;47.936;8.716;2023-11-19T06:09:53;2.00;;;1.90;;
11228;SDS011;5671;47.936;8.716;2023-11-19T06:12:21;1.13;;;1.13;;
11228;SDS011;5671;47.936;8.716;2023-11-19T06:14:48;0.93;;;0.93;;
11228;SDS011;5671;47.936;8.716;2023-11-19T06:17:14;1.23;;;0.90;;
11228;SDS011;5671;47.936;8.716;2023-11-19T06:19:42;0.93;;;0.60;;
11228;SDS011;5671;47.936;8.716;2023-11-19T06:22:10;0.50;;;0.50;;
11228;SDS011;5671;47.936;8.716;2023-11-19T06:24:37;1.37;;;0.40;;
11228;SDS011;5671;47.936;8.716;2023-11-19T06:27:03;0.40;;;0.40;;
11228;SDS011;5671;47.936;8.716;2023-11-19T06:29:32;1.43;;;0.30;;
11228;SDS011;5671;47.936;8.716;2023-11-19T06:31:58;0.40;;;0.20;;
11228;SDS011;5671;47.936;8.716;2023-11-19T06:34:25;0.50;;;0.50;;
11228;SDS011;5671;47.936;8.716;2023-11-19T06:36:52;1.23;;;0.50;;
11228;SDS011;5671;47.936;8.716;2023-11-19T06:39:19;0.50;;;0.50;;
11228;SDS011;5671;47.936;8.716;2023-11-19T06:41:46;1.47;;;0.40;;
11228;SDS011;5671;47.936;8.716;2023-11-19T06:44:13;0.60;;;0.60;;
11228;SDS011;5671;47.936;8.716;2023-11-19T06:46:41;0.50;;;0.50;;
11228;SDS011;5671;47.936;8.716;2023-11-19T06:49:08;0.60;;;0.60;;
11228;SDS011;5671;47.936;8.716;2023-11-19T06:51:35;0.60;;;0.60;;
11228;SDS011;5671;47.936;8.716;2023-11-19T06:54:06;0.50;;;0.50;;
11228;SDS011;5671;47.936;8.716;2023-11-19T06:56:33;1.87;;;0.47;;
11228;SDS011;5671;47.936;8.716;2023-11-19T06:59:00;0.50;;;0.50;;
11228;SDS011;5671;47.936;8.716;2023-11-19T07:01:27;0.87;;;0.87;;
11228;SDS011;5671;47.936;8.716;2023-11-19T07:03:55;0.80;;;0.80;;
11228;SDS011;5671;47.936;8.716;2023-11-19T07:06:23;1.27;;;1.17;;
11228;SDS011;5671;47.936;8.716;2023-11-19T07:08:49;0.60;;;0.60;;
11228;SDS011;5671;47.936;8.716;2023-11-19T07:11:16;0.67;;;0.67;;
11228;SDS011;5671;47.936;8.716;2023-11-19T07:13:43;0.63;;;0.63;;
11228;SDS011;5671;47.936;8.716;2023-11-19T07:16:11;1.43;;;0.83;;
11228;SDS011;5671;47.936;8.716;2023-11-19T07:18:39;2.17;;;0.50;;
11228;SDS011;5671;47.936;8.716;2023-11-19T07:21:08;0.50;;;0.50;;
11228;SDS011;5671;47.936;8.716;2023-11-19T07:23:35;1.00;;;0.90;;
11228;SDS011;5671;47.936;8.716;2023-11-19T07:26:04;1.10;;;0.83;;
11228;SDS011;5671;47.936;8.716;2023-11-19T07:28:33;0.80;;;0.80;;
11228;SDS011;5671;47.936;8.716;2023-11-19T07:31:00;0.90;;;0.90;;
11228;SDS011;5671;47.936;8.716;2023-11-19T07:33:27;1.30;;;1.20;;
11228;SDS011;5671;47.936;8.716;2023-11-19T07:35:54;1.33;;;1.20;;
11228;SDS011;5671;47.936;8.716;2023-11-19T07:38:22;1.47;;;1.20;;
11228;SDS011;5671;47.936;8.716;2023-11-19T07:40:49;0.93;;;0.93;;
11228;SDS011;5671;47.936;8.716;2023-11-19T07:43:16;1.90;;;0.80;;
11228;SDS011;5671;47.936;8.716;2023-11-19T07:45:43;0.93;;;0.93;;
11228;SDS011;5671;47.936;8.716;2023-11-19T07:48:11;0.90;;;0.90;;
11228;SDS011;5671;47.936;8.716;2023-11-19T07:50:39;0.77;;;0.40;;
11228;SDS011;5671;47.936;8.716;2023-11-19T07:53:06;0.90;;;0.50;;
11228;SDS011;5671;47.936;8.716;2023-11-19T07:55:35;0.70;;;0.50;;
11228;SDS011;5671;47.936;8.716;2023-11-19T07:58:02;0.50;;;0.50;;
11228;SDS011;5671;47.936;8.716;2023-11-19T08:00:28;1.03;;;0.50;;
11228;SDS011;5671;47.936;8.716;2023-11-19T08:02:55;1.40;;;0.40;;
11228;SDS011;5671;47.936;8.716;2023-11-19T08:05:22;1.50;;;0.30;;
11228;SDS011;5671;47.936;8.716;2023-11-19T08:07:50;0.43;;;0.30;;
11228;SDS011;5671;47.936;8.716;2023-11-19T08:10:18;0.30;;;0.30;;
11228;SDS011;5671;47.936;8.716;2023-11-19T08:12:46;0.30;;;0.30;;
11228;SDS011;5671;47.936;8.716;2023-11-19T08:15:13;0.20;;;0.20;;
11228;SDS011;5671;47.936;8.716;2023-11-19T08:17:40;0.43;;;0.40;;
11228;SDS011;5671;47.936;8.716;2023-11-19T08:20:08;0.20;;;0.20;;
11228;SDS011;5671;47.936;8.716;2023-11-19T08:22:35;0.50;;;0.50;;
11228;SDS011;5671;47.936;8.716;2023-11-19T08:25:02;0.43;;;0.43;;
11228;SDS011;5671;47.936;8.716;2023-11-19T08:27:29;0.40;;;0.40;;
11228;SDS011;5671;47.936;8.716;2023-11-19T08:29:58;0.83;;;0.60;;
11228;SDS011;5671;47.936;8.716;2023-11-19T08:32:24;0.50;;;0.50;;
11228;SDS011;5671;47.936;8.716;2023-11-19T08:34:52;4.90;;;4.33;;
11228;SDS011;5671;47.936;8.716;2023-11-19T08:37:19;10.03;;;9.03;;
11228;SDS011;5671;47.936;8.716;2023-11-19T08:39:47;5.90;;;5.33;;
11228;SDS011;5671;47.936;8.716;2023-11-19T08:42:14;5.60;;;5.10;;
11228;SDS011;5671;47.936;8.716;2023-11-19T08:44:41;2.70;;;1.27;;
11228;SDS011;5671;47.936;8.716;2023-11-19T08:47:10;0.57;;;0.57;;
11228;SDS011;5671;47.936;8.716;2023-11-19T08:49:37;0.30;;;0.30;;
11228;SDS011;5671;47.936;8.716;2023-11-19T08:52:04;1.67;;;0.70;;
11228;SDS011;5671;47.936;8.716;2023-11-19T08:54:32;0.80;;;0.80;;
11228;SDS011;5671;47.936;8.716;2023-11-19T08:57:02;0.30;;;0.30;;
11228;SDS011;5671;47.936;8.716;2023-11-19T08:59:29;0.37;;;0.37;;
11228;SDS011;5671;47.936;8.716;2023-11-19T09:01:56;0.43;;;0.43;;
11228;SDS011;5671;47.936;8.716;2023-11-19T09:04:24;1.00;;;1.00;;
11228;SDS011;5671;47.936;8.716;2023-11-19T09:06:51;0.40;;;0.40;;
11228;SDS011;5671;47.936;8.716;2023-11-19T09:09:18;0.40;;;0.40;;
11228;SDS011;5671;47.936;8.716;2023-11-19T09:11:45;0.47;;;0.47;;
11228;SDS011;5671;47.936;8.716;2023-11-19T09:14:11;0.50;;;0.50;;
11228;SDS011;5671;47.936;8.716;2023-11-19T09:16:38;0.50;;;0.50;;
11228;SDS011;5671;47.936;8.716;2023-11-19T09:19:05;0.40;;;0.40;;
11228;SDS011;5671;47.936;8.716;2023-11-19T09:21:33;0.30;;;0.30;;
11228;SDS011;5671;47.936;8.716;2023-11-19T09:24:03;0.73;;;0.30;;
11228;SDS011;5671;47.936;8.716;2023-11-19T09:26:32;0.30;;;0.30;;
11228;SDS011;5671;47.936;8.716;2023-11-19T09:28:59;2.00;;;0.50;;
11228;SDS011;5671;47.936;8.716;2023-11-19T09:31:26;0.40;;;0.40;;
11228;SDS011;5671;47.936;8.716;2023-11-19T09:33:53;0.40;;;0.30;;
11228;SDS011;5671;47.936;8.716;2023-11-19T09:36:20;1.13;;;0.50;;
11228;SDS011;5671;47.936;8.716;2023-11-19T09:38:48;0.10;;;0.10;;
11228;SDS011;5671;47.936;8.716;2023-11-19T09:41:15;0.30;;;0.30;;
11228;SDS011;5671;47.936;8.716;2023-11-19T09:43:44;0.60;;;0.23;;
11228;SDS011;5671;47.936;8.716;2023-11-19T09:46:12;0.20;;;0.20;;
11228;SDS011;5671;47.936;8.716;2023-11-19T09:48:41;0.70;;;0.20;;
11228;SDS011;5671;47.936;8.716;2023-11-19T09:51:09;0.30;;;0.30;;
11228;SDS011;5671;47.936;8.716;2023-11-19T09:53:37;0.47;;;0.47;;
11228;SDS011;5671;47.936;8.716;2023-11-19T09:56:06;0.27;;;0.27;;
11228;SDS011;5671;47.936;8.716;2023-11-19T09:58:34;0.97;;;0.70;;
11228;SDS011;5671;47.936;8.716;2023-11-19T10:01:01;0.93;;;0.80;;
11228;SDS011;5671;47.936;8.716;2023-11-19T10:03:32;0.43;;;0.40;;
11228;SDS011;5671;47.936;8.716;2023-11-19T10:06:00;0.40;;;0.40;;
11228;SDS011;5671;47.936;8.716;2023-11-19T10:08:27;1.20;;;0.83;;
11228;SDS011;5671;47.936;8.716;2023-11-19T10:10:54;0.90;;;0.90;;
11228;SDS011;5671;47.936;8.716;2023-11-19T10:13:26;0.60;;;0.60;;
11228;SDS011;5671;47.936;8.716;2023-11-19T10:15:54;1.40;;;0.60;;
11228;SDS011;5671;47.936;8.716;2023-11-19T10:18:23;1.47;;;1.37;;
11228;SDS011;5671;47.936;8.716;2023-11-19T10:20:51;1.20;;;1.10;;
11228;SDS011;5671;47.936;8.716;2023-11-19T10:23:20;3.23;;;1.60;;
11228;SDS011;5671;47.936;8.716;2023-11-19T10:25:47;1.60;;;0.60;;
11228;SDS011;5671;47.936;8.716;2023-11-19T10:28:14;1.40;;;0.93;;
11228;SDS011;5671;47.936;8.716;2023-11-19T10:30:44;1.10;;;1.10;;
11228;SDS011;5671;47.936;8.716;2023-11-19T10:33:11;1.10;;;1.07;;
11228;SDS011;5671;47.936;8.716;2023-11-19T10:35:51;0.70;;;0.70;;
11228;SDS011;5671;47.936;8.716;2023-11-19T10:38:19;1.00;;;0.80;;
11228;SDS011;5671;47.936;8.716;2023-11-19T10:40:47;1.17;;;0.90;;
11228;SDS011;5671;47.936;8.716;2023-11-19T10:43:14;0.40;;;0.40;;
11228;SDS011;5671;47.936;8.716;2023-11-19T10:45:41;1.10;;;0.73;;
11228;SDS011;5671;47.936;8.716;2023-11-19T10:48:10;0.50;;;0.50;;
11228;SDS011;5671;47.936;8.716;2023-11-19T10:50:38;0.80;;;0.80;;
11228;SDS011;5671;47.936;8.716;2023-11-19T10:53:06;0.60;;;0.60;;
11228;SDS011;5671;47.936;8.716;2023-11-19T10:55:34;0.50;;;0.50;;
11228;SDS011;5671;47.936;8.716;2023-11-19T10:58:03;0.70;;;0.60;;
11228;SDS011;5671;47.936;8.716;2023-11-19T11:00:34;0.93;;;0.50;;
11228;SDS011;5671;47.936;8.716;2023-11-19T11:03:08;0.40;;;0.40;;
11228;SDS011;5671;47.936;8.716;2023-11-19T11:05:37;0.67;;;0.60;;
11228;SDS011;5671;47.936;8.716;2023-11-19T11:08:05;0.30;;;0.30;;
11228;SDS011;5671;47.936;8.716;2023-11-19T11:10:35;1.40;;;0.57;;
11228;SDS011;5671;47.936;8.716;2023-11-19T11:13:08;0.43;;;0.43;;
11228;SDS011;5671;47.936;8.716;2023-11-19T11:15:37;0.30;;;0.30;;
11228;SDS011;5671;47.936;8.716;2023-11-19T11:18:04;0.40;;;0.40;;
11228;SDS011;5671;47.936;8.716;2023-11-19T11:20:35;0.30;;;0.30;;
11228;SDS011;5671;47.936;8.716;2023-11-19T11:26:17;0.40;;;0.40;;
11228;SDS011;5671;47.936;8.716;2023-11-19T11:29:02;0.70;;;0.70;;
11228;SDS011;5671;47.936;8.716;2023-11-19T11:31:36;0.90;;;0.37;;
11228;SDS011;5671;47.936;8.716;2023-11-19T11:34:19;0.20;;;0.20;;
11228;SDS011;5671;47.936;8.716;2023-11-19T11:37:06;0.20;;;0.20;;
11228;SDS011;5671;47.936;8.716;2023-11-19T11:39:40;0.30;;;0.30;;
11228;SDS011;5671;47.936;8.716;2023-11-19T11:45:04;0.50;;;0.20;;
11228;SDS011;5671;47.936;8.716;2023-11-19T11:50:49;1.03;;;0.50;;
11228;SDS011;5671;47.936;8.716;2023-11-19T11:53:17;0.67;;;0.30;;
11228;SDS011;5671;47.936;8.716;2023-11-19T11:55:54;0.37;;;0.37;;
11228;SDS011;5671;47.936;8.716;2023-11-19T11:58:30;1.33;;;0.70;;
11228;SDS011;5671;47.936;8.716;2023-11-19T12:00:59;0.20;;;0.20;;
11228;SDS011;5671;47.936;8.716;2023-11-19T12:03:28;0.87;;;0.87;;
11228;SDS011;5671;47.936;8.716;2023-11-19T12:05:57;1.47;;;0.90;;
11228;SDS011;5671;47.936;8.716;2023-11-19T12:08:25;0.60;;;0.60;;
11228;SDS011;5671;47.936;8.716;2023-11-19T12:10:54;0.30;;;0.30;;
11228;SDS011;5671;47.936;8.716;2023-11-19T12:13:23;0.53;;;0.40;;
11228;SDS011;5671;47.936;8.716;2023-11-19T12:16:09;0.20;;;0.20;;
11228;SDS011;5671;47.936;8.716;2023-11-19T12:18:38;1.90;;;0.50;;
11228;SDS011;5671;47.936;8.716;2023-11-19T12:21:10;0.20;;;0.20;;
11228;SDS011;5671;47.936;8.716;2023-11-19T12:23:43;0.50;;;0.40;;
11228;SDS011;5671;47.936;8.716;2023-11-19T12:29:02;0.50;;;0.47;;
11228;SDS011;5671;47.936;8.716;2023-11-19T12:31:32;0.60;;;0.60;;
11228;SDS011;5671;47.936;8.716;2023-11-19T12:34:08;1.20;;;0.60;;
11228;SDS011;5671;47.936;8.716;2023-11-19T12:36:38;0.93;;;0.67;;
11228;SDS011;5671;47.936;8.716;2023-11-19T12:39:06;0.87;;;0.67;;
11228;SDS011;5671;47.936;8.716;2023-11-19T12:41:48;1.47;;;0.70;;
11228;SDS011;5671;47.936;8.716;2023-11-19T12:44:16;0.50;;;0.50;;
11228;SDS011;5671;47.936;8.716;2023-11-19T12:46:42;1.77;;;0.70;;
11228;SDS011;5671;47.936;8.716;2023-11-19T12:49:10;0.87;;;0.70;;
11228;SDS011;5671;47.936;8.716;2023-11-19T12:51:39;1.47;;;0.87;;
11228;SDS011;5671;47.936;8.716;2023-11-19T12:54:06;1.00;;;0.57;;
11228;SDS011;5671;47.936;8.716;2023-11-19T12:56:33;0.80;;;0.73;;
11228;SDS011;5671;47.936;8.716;2023-11-19T12:59:09;0.80;;;0.80;;
11228;SDS011;5671;47.936;8.716;2023-11-19T13:01:37;0.67;;;0.67;;
11228;SDS011;5671;47.936;8.716;2023-11-19T13:04:15;0.30;;;0.30;;
11228;SDS011;5671;47.936;8.716;2023-11-19T13:06:45;0.27;;;0.20;;
11228;SDS011;5671;47.936;8.716;2023-11-19T13:09:21;0.43;;;0.40;;
11228;SDS011;5671;47.936;8.716;2023-11-19T13:11:49;1.53;;;0.60;;
11228;SDS011;5671;47.936;8.716;2023-11-19T13:14:16;0.40;;;0.40;;
11228;SDS011;5671;47.936;8.716;2023-11-19T13:16:44;0.73;;;0.50;;
11228;SDS011;5671;47.936;8.716;2023-11-19T13:19:11;0.80;;;0.70;;
11228;SDS011;5671;47.936;8.716;2023-11-19T13:21:38;1.00;;;0.90;;
11228;SDS011;5671;47.936;8.716;2023-11-19T13:24:07;0.67;;;0.50;;
11228;SDS011;5671;47.936;8.716;2023-11-19T13:26:35;0.37;;;0.33;;
11228;SDS011;5671;47.936;8.716;2023-11-19T13:29:01;0.20;;;0.13;;
11228;SDS011;5671;47.936;8.716;2023-11-19T13:31:28;0.20;;;0.20;;
11228;SDS011;5671;47.936;8.716;2023-11-19T13:33:55;0.37;;;0.30;;
11228;SDS011;5671;47.936;8.716;2023-11-19T13:36:23;0.77;;;0.27;;
11228;SDS011;5671;47.936;8.716;2023-11-19T13:38:51;0.87;;;0.40;;
11228;SDS011;5671;47.936;8.716;2023-11-19T13:41:25;0.30;;;0.20;;
11228;SDS011;5671;47.936;8.716;2023-11-19T13:43:52;0.23;;;0.20;;
11228;SDS011;5671;47.936;8.716;2023-11-19T13:46:19;0.30;;;0.30;;
11228;SDS011;5671;47.936;8.716;2023-11-19T13:48:45;0.30;;;0.30;;
11228;SDS011;5671;47.936;8.716;2023-11-19T13:51:14;0.23;;;0.20;;
11228;SDS011;5671;47.936;8.716;2023-11-19T13:53:41;4.23;;;0.50;;
11228;SDS011;5671;47.936;8.716;2023-11-19T13:56:09;0.60;;;0.53;;
11228;SDS011;5671;47.936;8.716;2023-11-19T13:58:37;1.17;;;0.20;;
11228;SDS011;5671;47.936;8.716;2023-11-19T14:01:05;0.50;;;0.50;;
11228;SDS011;5671;47.936;8.716;2023-11-19T14:03:32;1.30;;;1.20;;
11228;SDS011;5671;47.936;8.716;2023-11-19T14:05:59;1.10;;;1.00;;
11228;SDS011;5671;47.936;8.716;2023-11-19T14:08:26;1.03;;;0.83;;
11228;SDS011;5671;47.936;8.716;2023-11-19T14:10:53;0.90;;;0.90;;
11228;SDS011;5671;47.936;8.716;2023-11-19T14:13:21;0.70;;;0.70;;
11228;SDS011;5671;47.936;8.716;2023-11-19T14:15:50;0.60;;;0.60;;
11228;SDS011;5671;47.936;8.716;2023-11-19T14:18:17;0.40;;;0.40;;
11228;SDS011;5671;47.936;8.716;2023-11-19T14:20:44;0.70;;;0.67;;
11228;SDS011;5671;47.936;8.716;2023-11-19T14:23:11;0.40;;;0.40;;
11228;SDS011;5671;47.936;8.716;2023-11-19T14:25:37;0.40;;;0.40;;
11228;SDS011;5671;47.936;8.716;2023-11-19T14:28:04;0.73;;;0.50;;
11228;SDS011;5671;47.936;8.716;2023-11-19T14:30:31;2.10;;;0.40;;
11228;SDS011;5671;47.936;8.716;2023-11-19T14:33:00;0.77;;;0.60;;
11228;SDS011;5671;47.936;8.716;2023-11-19T14:35:28;0.57;;;0.40;;
11228;SDS011;5671;47.936;8.716;2023-11-19T14:37:57;0.40;;;0.40;;
11228;SDS011;5671;47.936;8.716;2023-11-19T14:40:24;0.60;;;0.47;;
11228;SDS011;5671;47.936;8.716;2023-11-19T14:42:51;1.43;;;0.60;;
11228;SDS011;5671;47.936;8.716;2023-11-19T14:45:18;0.93;;;0.60;;
11228;SDS011;5671;47.936;8.716;2023-11-19T14:47:45;1.60;;;0.50;;
11228;SDS011;5671;47.936;8.716;2023-11-19T14:50:13;2.17;;;1.30;;
11228;SDS011;5671;47.936;8.716;2023-11-19T14:52:40;2.53;;;1.00;;
11228;SDS011;5671;47.936;8.716;2023-11-19T14:55:10;1.53;;;1.03;;
11228;SDS011;5671;47.936;8.716;2023-11-19T14:57:39;0.80;;;0.67;;
11228;SDS011;5671;47.936;8.716;2023-11-19T15:00:54;1.03;;;0.70;;
11228;SDS011;5671;47.936;8.716;2023-11-19T15:03:10;0.97;;;0.80;;
11228;SDS011;5671;47.936;8.716;2023-11-19T15:05:38;1.37;;;0.60;;
11228;SDS011;5671;47.936;8.716;2023-11-19T15:08:05;0.73;;;0.70;;
11228;SDS011;5671;47.936;8.716;2023-11-19T15:10:44;0.97;;;0.70;;
11228;SDS011;5671;47.936;8.716;2023-11-19T15:13:13;1.60;;;0.80;;
11228;SDS011;5671;47.936;8.716;2023-11-19T15:15:43;2.27;;;1.20;;
11228;SDS011;5671;47.936;8.716;2023-11-19T15:18:10;1.37;;;0.50;;